sensor_id;sensor_type;location;lat;lon;timestamp;temperature;humidity
2441;DHT22;1231;53.988;9.470;2022-12-18T00:00:05;-3.80;83.20
2441;DHT22;1231;53.988;9.470;2022-12-18T00:02:36;-3.80;83.20
2441;DHT22;1231;53.988;9.470;2022-12-18T00:05:07;-3.80;83.10
2441;DHT22;1231;53.988;9.470;2022-12-18T00:07:37;-3.80;83.10
2441;DHT22;1231;53.988;9.470;2022-12-18T00:10:08;-3.90;83.00
2441;DHT22;1231;53.988;9.470;2022-12-18T00:12:39;-3.90;82.90
2441;DHT22;1231;53.988;9.470;2022-12-18T00:15:09;-3.90;82.70
2441;DHT22;1231;53.988;9.470;2022-12-18T00:17:40;-4.00;82.50
2441;DHT22;1231;53.988;9.470;2022-12-18T00:20:11;-4.00;82.50
2441;DHT22;1231;53.988;9.470;2022-12-18T00:22:41;-4.00;82.60
2441;DHT22;1231;53.988;9.470;2022-12-18T00:25:12;-4.00;82.50
2441;DHT22;1231;53.988;9.470;2022-12-18T00:27:42;-4.10;82.40
2441;DHT22;1231;53.988;9.470;2022-12-18T00:30:13;-4.10;82.50
2441;DHT22;1231;53.988;9.470;2022-12-18T00:32:43;-4.10;82.60
2441;DHT22;1231;53.988;9.470;2022-12-18T00:35:14;-4.10;82.60
2441;DHT22;1231;53.988;9.470;2022-12-18T00:37:45;-4.20;82.50
2441;DHT22;1231;53.988;9.470;2022-12-18T00:40:15;-4.20;82.40
2441;DHT22;1231;53.988;9.470;2022-12-18T00:42:46;-4.20;82.30
2441;DHT22;1231;53.988;9.470;2022-12-18T00:45:30;-4.20;82.30
2441;DHT22;1231;53.988;9.470;2022-12-18T00:48:01;-4.20;82.20
2441;DHT22;1231;53.988;9.470;2022-12-18T00:50:32;-4.30;82.20
2441;DHT22;1231;53.988;9.470;2022-12-18T00:53:02;-4.30;82.10
2441;DHT22;1231;53.988;9.470;2022-12-18T00:55:33;-4.30;82.00
2441;DHT22;1231;53.988;9.470;2022-12-18T00:58:03;-4.40;82.00
2441;DHT22;1231;53.988;9.470;2022-12-18T01:00:34;-4.40;82.00
2441;DHT22;1231;53.988;9.470;2022-12-18T01:03:05;-4.40;82.10
2441;DHT22;1231;53.988;9.470;2022-12-18T01:05:39;-4.40;82.20
2441;DHT22;1231;53.988;9.470;2022-12-18T01:08:10;-4.40;82.20
2441;DHT22;1231;53.988;9.470;2022-12-18T01:10:41;-4.40;82.20
2441;DHT22;1231;53.988;9.470;2022-12-18T01:13:11;-4.40;82.20
2441;DHT22;1231;53.988;9.470;2022-12-18T01:15:51;-4.40;82.40
2441;DHT22;1231;53.988;9.470;2022-12-18T01:18:22;-4.40;82.70
2441;DHT22;1231;53.988;9.470;2022-12-18T01:20:52;-4.40;82.90
2441;DHT22;1231;53.988;9.470;2022-12-18T01:23:26;-4.40;83.00
2441;DHT22;1231;53.988;9.470;2022-12-18T01:25:57;-4.30;83.10
2441;DHT22;1231;53.988;9.470;2022-12-18T01:28:28;-4.30;83.00
2441;DHT22;1231;53.988;9.470;2022-12-18T01:31:13;-4.30;83.00
2441;DHT22;1231;53.988;9.470;2022-12-18T01:33:44;-4.30;82.90
2441;DHT22;1231;53.988;9.470;2022-12-18T01:36:20;-4.30;82.80
2441;DHT22;1231;53.988;9.470;2022-12-18T01:38:52;-4.30;82.80
2441;DHT22;1231;53.988;9.470;2022-12-18T01:41:26;-4.30;82.80
2441;DHT22;1231;53.988;9.470;2022-12-18T01:43:57;-4.30;82.80
2441;DHT22;1231;53.988;9.470;2022-12-18T01:46:28;-4.30;82.60
2441;DHT22;1231;53.988;9.470;2022-12-18T01:49:00;-4.40;82.70
2441;DHT22;1231;53.988;9.470;2022-12-18T01:51:31;-4.30;82.80
2441;DHT22;1231;53.988;9.470;2022-12-18T01:54:02;-4.30;83.00
2441;DHT22;1231;53.988;9.470;2022-12-18T01:56:33;-4.30;83.20
2441;DHT22;1231;53.988;9.470;2022-12-18T01:59:05;-4.30;83.30
2441;DHT22;1231;53.988;9.470;2022-12-18T02:01:37;-4.20;83.30
2441;DHT22;1231;53.988;9.470;2022-12-18T02:04:22;-4.20;83.20
2441;DHT22;1231;53.988;9.470;2022-12-18T02:09:33;-4.20;82.90
2441;DHT22;1231;53.988;9.470;2022-12-18T02:12:16;-4.30;83.00
2441;DHT22;1231;53.988;9.470;2022-12-18T02:15:00;-4.30;82.90
2441;DHT22;1231;53.988;9.470;2022-12-18T02:20:28;-4.30;83.00
2441;DHT22;1231;53.988;9.470;2022-12-18T02:28:53;-4.30;82.90
2441;DHT22;1231;53.988;9.470;2022-12-18T02:31:28;-4.30;82.80
2441;DHT22;1231;53.988;9.470;2022-12-18T02:34:02;-4.30;82.70
2441;DHT22;1231;53.988;9.470;2022-12-18T02:36:36;-4.40;82.70
2441;DHT22;1231;53.988;9.470;2022-12-18T02:39:11;-4.40;82.70
2441;DHT22;1231;53.988;9.470;2022-12-18T02:41:42;-4.40;82.60
2441;DHT22;1231;53.988;9.470;2022-12-18T02:44:13;-4.40;82.60
2441;DHT22;1231;53.988;9.470;2022-12-18T02:46:52;-4.40;82.70
2441;DHT22;1231;53.988;9.470;2022-12-18T02:52:42;-4.50;82.70
2441;DHT22;1231;53.988;9.470;2022-12-18T02:58:14;-4.50;82.50
2441;DHT22;1231;53.988;9.470;2022-12-18T03:01:10;-4.50;82.60
2441;DHT22;1231;53.988;9.470;2022-12-18T03:03:50;-4.60;82.70
2441;DHT22;1231;53.988;9.470;2022-12-18T03:06:37;-4.50;82.80
2441;DHT22;1231;53.988;9.470;2022-12-18T03:09:14;-4.60;82.80
2441;DHT22;1231;53.988;9.470;2022-12-18T03:11:53;-4.50;83.00
2441;DHT22;1231;53.988;9.470;2022-12-18T03:14:44;-4.50;83.20
2441;DHT22;1231;53.988;9.470;2022-12-18T03:17:18;-4.50;83.10
2441;DHT22;1231;53.988;9.470;2022-12-18T03:19:52;-4.50;83.10
2441;DHT22;1231;53.988;9.470;2022-12-18T03:22:27;-4.50;83.00
2441;DHT22;1231;53.988;9.470;2022-12-18T03:25:02;-4.50;83.00
2441;DHT22;1231;53.988;9.470;2022-12-18T03:27:36;-4.50;82.90
2441;DHT22;1231;53.988;9.470;2022-12-18T03:30:09;-4.50;82.80
2441;DHT22;1231;53.988;9.470;2022-12-18T03:32:50;-4.50;82.60
2441;DHT22;1231;53.988;9.470;2022-12-18T03:35:28;-4.50;82.50
2441;DHT22;1231;53.988;9.470;2022-12-18T03:37:59;-4.50;82.50
2441;DHT22;1231;53.988;9.470;2022-12-18T03:49:10;-4.60;82.60
2441;DHT22;1231;53.988;9.470;2022-12-18T03:52:17;-4.60;82.60
2441;DHT22;1231;53.988;9.470;2022-12-18T03:54:48;-4.60;82.60
2441;DHT22;1231;53.988;9.470;2022-12-18T03:57:22;-4.60;82.60
2441;DHT22;1231;53.988;9.470;2022-12-18T04:00:03;-4.60;82.80
2441;DHT22;1231;53.988;9.470;2022-12-18T04:02:34;-4.60;82.90
2441;DHT22;1231;53.988;9.470;2022-12-18T04:05:08;-4.50;83.10
2441;DHT22;1231;53.988;9.470;2022-12-18T04:07:40;-4.50;83.20
2441;DHT22;1231;53.988;9.470;2022-12-18T04:10:12;-4.50;83.30
2441;DHT22;1231;53.988;9.470;2022-12-18T04:12:43;-4.40;83.40
2441;DHT22;1231;53.988;9.470;2022-12-18T04:15:16;-4.40;83.50
2441;DHT22;1231;53.988;9.470;2022-12-18T04:17:48;-4.40;83.60
2441;DHT22;1231;53.988;9.470;2022-12-18T04:20:18;-4.30;83.70
2441;DHT22;1231;53.988;9.470;2022-12-18T04:22:49;-4.30;83.70
2441;DHT22;1231;53.988;9.470;2022-12-18T04:25:20;-4.30;83.70
2441;DHT22;1231;53.988;9.470;2022-12-18T04:27:50;-4.30;83.70
2441;DHT22;1231;53.988;9.470;2022-12-18T04:30:21;-4.30;83.60
2441;DHT22;1231;53.988;9.470;2022-12-18T04:32:51;-4.30;83.60
2441;DHT22;1231;53.988;9.470;2022-12-18T04:35:22;-4.30;83.50
2441;DHT22;1231;53.988;9.470;2022-12-18T04:37:52;-4.30;83.50
2441;DHT22;1231;53.988;9.470;2022-12-18T04:40:23;-4.20;83.50
2441;DHT22;1231;53.988;9.470;2022-12-18T04:42:53;-4.30;83.40
2441;DHT22;1231;53.988;9.470;2022-12-18T04:45:24;-4.20;83.30
2441;DHT22;1231;53.988;9.470;2022-12-18T04:48:00;-4.30;83.30
2441;DHT22;1231;53.988;9.470;2022-12-18T04:50:31;-4.20;83.30
2441;DHT22;1231;53.988;9.470;2022-12-18T04:53:02;-4.20;83.20
2441;DHT22;1231;53.988;9.470;2022-12-18T04:55:33;-4.20;83.30
2441;DHT22;1231;53.988;9.470;2022-12-18T04:58:03;-4.20;83.30
2441;DHT22;1231;53.988;9.470;2022-12-18T05:00:34;-4.20;83.40
2441;DHT22;1231;53.988;9.470;2022-12-18T05:03:04;-4.20;83.50
2441;DHT22;1231;53.988;9.470;2022-12-18T05:05:35;-4.20;83.60
2441;DHT22;1231;53.988;9.470;2022-12-18T05:08:06;-4.20;83.60
2441;DHT22;1231;53.988;9.470;2022-12-18T05:10:36;-4.20;83.60
2441;DHT22;1231;53.988;9.470;2022-12-18T05:13:07;-4.20;83.60
2441;DHT22;1231;53.988;9.470;2022-12-18T05:15:37;-4.20;83.50
2441;DHT22;1231;53.988;9.470;2022-12-18T05:18:08;-4.20;83.30
2441;DHT22;1231;53.988;9.470;2022-12-18T05:20:39;-4.20;83.20
2441;DHT22;1231;53.988;9.470;2022-12-18T05:23:09;-4.20;83.20
2441;DHT22;1231;53.988;9.470;2022-12-18T05:25:40;-4.20;83.00
2441;DHT22;1231;53.988;9.470;2022-12-18T05:28:11;-4.30;82.90
2441;DHT22;1231;53.988;9.470;2022-12-18T05:30:52;-4.30;82.80
2441;DHT22;1231;53.988;9.470;2022-12-18T05:33:24;-4.30;82.70
2441;DHT22;1231;53.988;9.470;2022-12-18T05:35:57;-4.40;82.60
2441;DHT22;1231;53.988;9.470;2022-12-18T05:38:29;-4.40;82.40
2441;DHT22;1231;53.988;9.470;2022-12-18T05:41:00;-4.40;82.30
2441;DHT22;1231;53.988;9.470;2022-12-18T05:43:31;-4.50;82.40
2441;DHT22;1231;53.988;9.470;2022-12-18T05:46:06;-4.50;82.50
2441;DHT22;1231;53.988;9.470;2022-12-18T05:48:37;-4.50;82.40
2441;DHT22;1231;53.988;9.470;2022-12-18T05:51:16;-4.50;82.40
2441;DHT22;1231;53.988;9.470;2022-12-18T05:53:47;-4.60;82.30
2441;DHT22;1231;53.988;9.470;2022-12-18T05:56:22;-4.60;82.10
2441;DHT22;1231;53.988;9.470;2022-12-18T05:58:54;-4.60;82.00
2441;DHT22;1231;53.988;9.470;2022-12-18T06:01:25;-4.70;82.00
2441;DHT22;1231;53.988;9.470;2022-12-18T06:03:56;-4.70;82.00
2441;DHT22;1231;53.988;9.470;2022-12-18T06:06:27;-4.70;81.90
2441;DHT22;1231;53.988;9.470;2022-12-18T06:08:58;-4.70;81.80
2441;DHT22;1231;53.988;9.470;2022-12-18T06:11:28;-4.80;81.70
2441;DHT22;1231;53.988;9.470;2022-12-18T06:13:59;-4.80;81.60
2441;DHT22;1231;53.988;9.470;2022-12-18T06:16:30;-4.90;81.50
2441;DHT22;1231;53.988;9.470;2022-12-18T06:19:03;-4.90;81.40
2441;DHT22;1231;53.988;9.470;2022-12-18T06:21:34;-4.90;81.40
2441;DHT22;1231;53.988;9.470;2022-12-18T06:24:05;-5.00;81.40
2441;DHT22;1231;53.988;9.470;2022-12-18T06:26:39;-5.00;81.50
2441;DHT22;1231;53.988;9.470;2022-12-18T06:29:09;-5.00;81.50
2441;DHT22;1231;53.988;9.470;2022-12-18T06:31:40;-5.00;81.40
2441;DHT22;1231;53.988;9.470;2022-12-18T06:34:10;-5.10;81.50
2441;DHT22;1231;53.988;9.470;2022-12-18T06:36:41;-5.10;81.50
2441;DHT22;1231;53.988;9.470;2022-12-18T06:39:12;-5.10;81.50
2441;DHT22;1231;53.988;9.470;2022-12-18T06:41:42;-5.10;81.50
2441;DHT22;1231;53.988;9.470;2022-12-18T06:44:13;-5.10;81.40
2441;DHT22;1231;53.988;9.470;2022-12-18T06:46:43;-5.20;81.40
2441;DHT22;1231;53.988;9.470;2022-12-18T06:49:14;-5.20;81.30
2441;DHT22;1231;53.988;9.470;2022-12-18T06:51:46;-5.20;81.20
2441;DHT22;1231;53.988;9.470;2022-12-18T06:54:17;-5.30;81.20
2441;DHT22;1231;53.988;9.470;2022-12-18T06:56:47;-5.30;81.10
2441;DHT22;1231;53.988;9.470;2022-12-18T06:59:18;-5.30;81.10
2441;DHT22;1231;53.988;9.470;2022-12-18T07:01:48;-5.30;81.10
2441;DHT22;1231;53.988;9.470;2022-12-18T07:04:19;-5.40;80.90
2441;DHT22;1231;53.988;9.470;2022-12-18T07:06:49;-5.40;80.80
2441;DHT22;1231;53.988;9.470;2022-12-18T07:09:20;-5.40;80.80
2441;DHT22;1231;53.988;9.470;2022-12-18T07:11:51;-5.40;80.80
2441;DHT22;1231;53.988;9.470;2022-12-18T07:14:21;-5.50;80.90
2441;DHT22;1231;53.988;9.470;2022-12-18T07:16:52;-5.50;80.90
2441;DHT22;1231;53.988;9.470;2022-12-18T07:19:25;-5.50;81.20
2441;DHT22;1231;53.988;9.470;2022-12-18T07:21:56;-5.50;81.20
2441;DHT22;1231;53.988;9.470;2022-12-18T07:24:27;-5.50;81.20
2441;DHT22;1231;53.988;9.470;2022-12-18T07:26:58;-5.50;81.10
2441;DHT22;1231;53.988;9.470;2022-12-18T07:29:28;-5.50;80.90
2441;DHT22;1231;53.988;9.470;2022-12-18T07:31:59;-5.50;80.90
2441;DHT22;1231;53.988;9.470;2022-12-18T07:34:29;-5.50;80.80
2441;DHT22;1231;53.988;9.470;2022-12-18T07:37:00;-5.60;80.60
2441;DHT22;1231;53.988;9.470;2022-12-18T07:39:31;-5.60;80.50
2441;DHT22;1231;53.988;9.470;2022-12-18T07:42:01;-5.70;80.60
2441;DHT22;1231;53.988;9.470;2022-12-18T07:44:50;-5.60;80.70
2441;DHT22;1231;53.988;9.470;2022-12-18T07:47:21;-5.70;80.80
2441;DHT22;1231;53.988;9.470;2022-12-18T07:49:51;-5.60;80.80
2441;DHT22;1231;53.988;9.470;2022-12-18T07:52:22;-5.60;80.80
2441;DHT22;1231;53.988;9.470;2022-12-18T07:54:52;-5.60;80.90
2441;DHT22;1231;53.988;9.470;2022-12-18T07:57:23;-5.60;81.00
2441;DHT22;1231;53.988;9.470;2022-12-18T07:59:54;-5.50;81.00
2441;DHT22;1231;53.988;9.470;2022-12-18T08:02:24;-5.50;80.90
2441;DHT22;1231;53.988;9.470;2022-12-18T08:04:55;-5.40;81.10
2441;DHT22;1231;53.988;9.470;2022-12-18T08:07:25;-5.40;80.90
2441;DHT22;1231;53.988;9.470;2022-12-18T08:09:56;-5.30;80.80
2441;DHT22;1231;53.988;9.470;2022-12-18T08:12:26;-5.30;80.70
2441;DHT22;1231;53.988;9.470;2022-12-18T08:14:57;-5.30;80.70
2441;DHT22;1231;53.988;9.470;2022-12-18T08:17:28;-5.30;80.70
2441;DHT22;1231;53.988;9.470;2022-12-18T08:19:58;-5.20;80.60
2441;DHT22;1231;53.988;9.470;2022-12-18T08:22:29;-5.10;80.70
2441;DHT22;1231;53.988;9.470;2022-12-18T08:24:59;-5.00;81.00
2441;DHT22;1231;53.988;9.470;2022-12-18T08:27:30;-4.90;81.00
2441;DHT22;1231;53.988;9.470;2022-12-18T08:30:00;-4.90;81.00
2441;DHT22;1231;53.988;9.470;2022-12-18T08:32:31;-4.80;81.10
2441;DHT22;1231;53.988;9.470;2022-12-18T08:35:03;-4.70;81.10
2441;DHT22;1231;53.988;9.470;2022-12-18T08:37:34;-4.70;80.90
2441;DHT22;1231;53.988;9.470;2022-12-18T08:40:05;-4.70;80.80
2441;DHT22;1231;53.988;9.470;2022-12-18T08:42:36;-4.70;80.70
2441;DHT22;1231;53.988;9.470;2022-12-18T08:45:25;-4.70;80.50
2441;DHT22;1231;53.988;9.470;2022-12-18T08:47:56;-4.70;80.30
2441;DHT22;1231;53.988;9.470;2022-12-18T08:50:27;-4.70;80.10
2441;DHT22;1231;53.988;9.470;2022-12-18T08:52:57;-4.80;80.00
2441;DHT22;1231;53.988;9.470;2022-12-18T08:55:28;-4.80;80.10
2441;DHT22;1231;53.988;9.470;2022-12-18T08:57:59;-4.70;80.10
2441;DHT22;1231;53.988;9.470;2022-12-18T09:00:29;-4.70;80.30
2441;DHT22;1231;53.988;9.470;2022-12-18T09:03:00;-4.60;80.30
2441;DHT22;1231;53.988;9.470;2022-12-18T09:05:32;-4.50;80.30
2441;DHT22;1231;53.988;9.470;2022-12-18T09:08:02;-4.40;80.20
2441;DHT22;1231;53.988;9.470;2022-12-18T09:10:33;-4.40;80.00
2441;DHT22;1231;53.988;9.470;2022-12-18T09:13:04;-4.30;80.20
2441;DHT22;1231;53.988;9.470;2022-12-18T09:15:39;-4.20;80.10
2441;DHT22;1231;53.988;9.470;2022-12-18T09:18:10;-4.00;79.80
2441;DHT22;1231;53.988;9.470;2022-12-18T09:20:41;-3.90;79.60
2441;DHT22;1231;53.988;9.470;2022-12-18T09:23:12;-3.80;79.50
2441;DHT22;1231;53.988;9.470;2022-12-18T09:25:42;-3.70;79.60
2441;DHT22;1231;53.988;9.470;2022-12-18T09:28:18;-3.60;79.60
2441;DHT22;1231;53.988;9.470;2022-12-18T09:30:49;-3.40;79.30
2441;DHT22;1231;53.988;9.470;2022-12-18T09:33:20;-3.30;79.20
2441;DHT22;1231;53.988;9.470;2022-12-18T09:35:50;-3.10;79.10
2441;DHT22;1231;53.988;9.470;2022-12-18T09:38:21;-3.00;79.10
2441;DHT22;1231;53.988;9.470;2022-12-18T09:41:06;-2.90;79.00
2441;DHT22;1231;53.988;9.470;2022-12-18T09:43:53;-2.70;78.90
2441;DHT22;1231;53.988;9.470;2022-12-18T09:46:32;-2.50;78.60
2441;DHT22;1231;53.988;9.470;2022-12-18T09:49:07;-2.40;78.30
2441;DHT22;1231;53.988;9.470;2022-12-18T09:52:08;-2.40;78.10
2441;DHT22;1231;53.988;9.470;2022-12-18T09:54:45;-2.40;78.00
2441;DHT22;1231;53.988;9.470;2022-12-18T09:57:19;-2.30;78.10
2441;DHT22;1231;53.988;9.470;2022-12-18T10:00:03;-2.20;78.10
2441;DHT22;1231;53.988;9.470;2022-12-18T10:02:33;-2.10;77.90
2441;DHT22;1231;53.988;9.470;2022-12-18T10:05:12;-2.00;77.80
2441;DHT22;1231;53.988;9.470;2022-12-18T10:08:03;-1.90;77.80
2441;DHT22;1231;53.988;9.470;2022-12-18T10:10:51;-2.00;77.80
2441;DHT22;1231;53.988;9.470;2022-12-18T10:13:39;-2.10;77.70
2441;DHT22;1231;53.988;9.470;2022-12-18T10:16:54;-2.10;77.80
2441;DHT22;1231;53.988;9.470;2022-12-18T10:19:41;-2.00;77.80
2441;DHT22;1231;53.988;9.470;2022-12-18T10:22:44;-1.90;77.50
2441;DHT22;1231;53.988;9.470;2022-12-18T10:25:23;-1.90;77.50
2441;DHT22;1231;53.988;9.470;2022-12-18T10:28:03;-1.80;77.60
2441;DHT22;1231;53.988;9.470;2022-12-18T10:30:38;-1.70;77.90
2441;DHT22;1231;53.988;9.470;2022-12-18T10:33:16;-1.50;77.90
2441;DHT22;1231;53.988;9.470;2022-12-18T10:35:52;-1.30;77.80
2441;DHT22;1231;53.988;9.470;2022-12-18T10:38:30;-1.20;77.40
2441;DHT22;1231;53.988;9.470;2022-12-18T10:41:06;-1.10;77.10
2441;DHT22;1231;53.988;9.470;2022-12-18T10:43:39;-1.00;77.10
2441;DHT22;1231;53.988;9.470;2022-12-18T10:51:28;-0.60;77.10
2441;DHT22;1231;53.988;9.470;2022-12-18T10:54:02;-0.50;77.00
2441;DHT22;1231;53.988;9.470;2022-12-18T10:56:35;-0.30;76.90
2441;DHT22;1231;53.988;9.470;2022-12-18T10:59:09;-0.20;76.90
2441;DHT22;1231;53.988;9.470;2022-12-18T11:01:58;-0.10;77.00
2441;DHT22;1231;53.988;9.470;2022-12-18T11:04:31;0.10;76.80
2441;DHT22;1231;53.988;9.470;2022-12-18T11:07:04;0.20;76.70
2441;DHT22;1231;53.988;9.470;2022-12-18T11:09:37;0.30;76.60
2441;DHT22;1231;53.988;9.470;2022-12-18T11:12:18;0.40;76.30
2441;DHT22;1231;53.988;9.470;2022-12-18T11:14:51;0.30;76.30
2441;DHT22;1231;53.988;9.470;2022-12-18T11:17:34;0.30;76.20
2441;DHT22;1231;53.988;9.470;2022-12-18T11:23:00;0.40;76.40
2441;DHT22;1231;53.988;9.470;2022-12-18T11:25:32;0.40;76.30
2441;DHT22;1231;53.988;9.470;2022-12-18T11:31:28;0.50;76.30
2441;DHT22;1231;53.988;9.470;2022-12-18T11:34:11;0.60;76.00
2441;DHT22;1231;53.988;9.470;2022-12-18T11:36:47;0.70;75.80
2441;DHT22;1231;53.988;9.470;2022-12-18T11:39:24;0.70;75.90
2441;DHT22;1231;53.988;9.470;2022-12-18T11:42:12;0.70;75.90
2441;DHT22;1231;53.988;9.470;2022-12-18T11:47:39;0.70;75.50
2441;DHT22;1231;53.988;9.470;2022-12-18T11:50:18;0.70;75.70
2441;DHT22;1231;53.988;9.470;2022-12-18T11:52:49;0.70;75.80
2441;DHT22;1231;53.988;9.470;2022-12-18T11:55:37;0.70;75.80
2441;DHT22;1231;53.988;9.470;2022-12-18T11:58:41;0.70;75.80
2441;DHT22;1231;53.988;9.470;2022-12-18T12:01:15;0.50;75.90
2441;DHT22;1231;53.988;9.470;2022-12-18T12:11:59;0.20;75.00
2441;DHT22;1231;53.988;9.470;2022-12-18T12:25:51;-0.60;74.80
2441;DHT22;1231;53.988;9.470;2022-12-18T12:34:23;-0.70;75.40
2441;DHT22;1231;53.988;9.470;2022-12-18T12:39:36;-0.70;75.90
2441;DHT22;1231;53.988;9.470;2022-12-18T12:42:25;-0.70;75.90
2441;DHT22;1231;53.988;9.470;2022-12-18T12:45:28;-0.80;76.10
2441;DHT22;1231;53.988;9.470;2022-12-18T12:48:01;-0.80;76.10
2441;DHT22;1231;53.988;9.470;2022-12-18T12:50:34;-0.80;76.10
2441;DHT22;1231;53.988;9.470;2022-12-18T12:53:17;-0.80;76.40
2441;DHT22;1231;53.988;9.470;2022-12-18T12:55:52;-0.80;76.50
2441;DHT22;1231;53.988;9.470;2022-12-18T13:01:32;-0.70;76.60
2441;DHT22;1231;53.988;9.470;2022-12-18T13:04:23;-0.60;76.60
2441;DHT22;1231;53.988;9.470;2022-12-18T13:10:22;-0.40;76.40
2441;DHT22;1231;53.988;9.470;2022-12-18T13:13:05;-0.40;76.50
2441;DHT22;1231;53.988;9.470;2022-12-18T13:15:45;-0.40;76.60
2441;DHT22;1231;53.988;9.470;2022-12-18T13:18:21;-0.40;76.70
2441;DHT22;1231;53.988;9.470;2022-12-18T13:23:39;-0.40;76.80
2441;DHT22;1231;53.988;9.470;2022-12-18T13:34:23;-0.50;77.00
2441;DHT22;1231;53.988;9.470;2022-12-18T13:36:57;-0.60;76.90
2441;DHT22;1231;53.988;9.470;2022-12-18T13:39:47;-0.60;77.00
2441;DHT22;1231;53.988;9.470;2022-12-18T13:45:37;-0.80;77.10
2441;DHT22;1231;53.988;9.470;2022-12-18T13:48:23;-0.90;77.20
2441;DHT22;1231;53.988;9.470;2022-12-18T13:51:06;-1.00;77.10
2441;DHT22;1231;53.988;9.470;2022-12-18T13:56:53;-1.20;77.20
2441;DHT22;1231;53.988;9.470;2022-12-18T13:59:26;-1.30;77.20
2441;DHT22;1231;53.988;9.470;2022-12-18T14:02:07;-1.30;77.10
2441;DHT22;1231;53.988;9.470;2022-12-18T14:04:40;-1.40;77.00
2441;DHT22;1231;53.988;9.470;2022-12-18T14:07:14;-1.50;77.10
2441;DHT22;1231;53.988;9.470;2022-12-18T14:09:52;-1.60;77.30
2441;DHT22;1231;53.988;9.470;2022-12-18T14:12:27;-1.60;77.60
2441;DHT22;1231;53.988;9.470;2022-12-18T14:21:02;-1.70;78.00
2441;DHT22;1231;53.988;9.470;2022-12-18T14:23:39;-1.60;78.10
2441;DHT22;1231;53.988;9.470;2022-12-18T14:26:28;-1.70;78.20
2441;DHT22;1231;53.988;9.470;2022-12-18T14:29:10;-1.70;78.40
2441;DHT22;1231;53.988;9.470;2022-12-18T14:32:13;-1.70;78.50
2441;DHT22;1231;53.988;9.470;2022-12-18T14:34:51;-1.70;78.70
2441;DHT22;1231;53.988;9.470;2022-12-18T14:37:25;-1.70;78.70
2441;DHT22;1231;53.988;9.470;2022-12-18T14:39:58;-1.70;78.70
2441;DHT22;1231;53.988;9.470;2022-12-18T14:42:30;-1.70;78.70
2441;DHT22;1231;53.988;9.470;2022-12-18T14:50:42;-1.80;79.00
2441;DHT22;1231;53.988;9.470;2022-12-18T14:53:23;-1.80;79.20
2441;DHT22;1231;53.988;9.470;2022-12-18T14:55:56;-1.80;79.30
2441;DHT22;1231;53.988;9.470;2022-12-18T14:58:27;-1.90;79.50
2441;DHT22;1231;53.988;9.470;2022-12-18T15:00:57;-1.90;79.60
2441;DHT22;1231;53.988;9.470;2022-12-18T15:03:28;-1.90;79.80
2441;DHT22;1231;53.988;9.470;2022-12-18T15:06:18;-1.90;79.90
2441;DHT22;1231;53.988;9.470;2022-12-18T15:08:54;-1.90;80.00
2441;DHT22;1231;53.988;9.470;2022-12-18T15:17:18;-1.90;80.10
2441;DHT22;1231;53.988;9.470;2022-12-18T15:19:52;-2.00;80.10
2441;DHT22;1231;53.988;9.470;2022-12-18T15:22:33;-2.00;80.10
2441;DHT22;1231;53.988;9.470;2022-12-18T15:27:58;-2.10;80.40
2441;DHT22;1231;53.988;9.470;2022-12-18T15:30:29;-2.10;80.40
2441;DHT22;1231;53.988;9.470;2022-12-18T15:33:23;-2.10;80.40
2441;DHT22;1231;53.988;9.470;2022-12-18T15:36:03;-2.10;80.50
2441;DHT22;1231;53.988;9.470;2022-12-18T15:38:35;-2.10;80.60
2441;DHT22;1231;53.988;9.470;2022-12-18T15:41:05;-2.10;80.60
2441;DHT22;1231;53.988;9.470;2022-12-18T15:43:37;-2.10;80.60
2441;DHT22;1231;53.988;9.470;2022-12-18T15:46:22;-2.10;80.70
2441;DHT22;1231;53.988;9.470;2022-12-18T15:48:55;-2.10;80.70
2441;DHT22;1231;53.988;9.470;2022-12-18T15:51:35;-2.00;80.70
2441;DHT22;1231;53.988;9.470;2022-12-18T15:54:11;-2.00;80.70
2441;DHT22;1231;53.988;9.470;2022-12-18T15:56:43;-2.00;80.70
2441;DHT22;1231;53.988;9.470;2022-12-18T15:59:32;-2.00;80.70
2441;DHT22;1231;53.988;9.470;2022-12-18T16:02:14;-1.90;80.60
2441;DHT22;1231;53.988;9.470;2022-12-18T16:04:46;-1.90;80.60
2441;DHT22;1231;53.988;9.470;2022-12-18T16:07:17;-1.90;80.60
2441;DHT22;1231;53.988;9.470;2022-12-18T16:09:47;-1.90;80.60
2441;DHT22;1231;53.988;9.470;2022-12-18T16:12:21;-1.90;80.60
2441;DHT22;1231;53.988;9.470;2022-12-18T16:14:52;-1.90;80.50
2441;DHT22;1231;53.988;9.470;2022-12-18T16:17:23;-1.90;80.50
2441;DHT22;1231;53.988;9.470;2022-12-18T16:19:53;-1.90;80.40
2441;DHT22;1231;53.988;9.470;2022-12-18T16:22:27;-1.90;80.50
2441;DHT22;1231;53.988;9.470;2022-12-18T16:24:58;-1.90;80.40
2441;DHT22;1231;53.988;9.470;2022-12-18T16:27:29;-2.00;80.40
2441;DHT22;1231;53.988;9.470;2022-12-18T16:29:59;-2.00;80.40
2441;DHT22;1231;53.988;9.470;2022-12-18T16:32:30;-2.00;80.40
2441;DHT22;1231;53.988;9.470;2022-12-18T16:35:00;-2.00;80.30
2441;DHT22;1231;53.988;9.470;2022-12-18T16:37:31;-2.00;80.40
2441;DHT22;1231;53.988;9.470;2022-12-18T16:40:02;-2.00;80.30
2441;DHT22;1231;53.988;9.470;2022-12-18T16:42:32;-2.00;80.30
2441;DHT22;1231;53.988;9.470;2022-12-18T16:45:04;-2.00;80.10
2441;DHT22;1231;53.988;9.470;2022-12-18T16:47:35;-2.00;80.30
2441;DHT22;1231;53.988;9.470;2022-12-18T16:50:07;-2.00;80.30
2441;DHT22;1231;53.988;9.470;2022-12-18T16:52:39;-2.10;80.40
2441;DHT22;1231;53.988;9.470;2022-12-18T16:55:10;-2.10;80.40
2441;DHT22;1231;53.988;9.470;2022-12-18T16:57:40;-2.10;80.50
2441;DHT22;1231;53.988;9.470;2022-12-18T17:00:11;-2.10;80.50
2441;DHT22;1231;53.988;9.470;2022-12-18T17:02:42;-2.10;80.50
2441;DHT22;1231;53.988;9.470;2022-12-18T17:05:13;-2.10;80.50
2441;DHT22;1231;53.988;9.470;2022-12-18T17:07:43;-2.10;80.60
2441;DHT22;1231;53.988;9.470;2022-12-18T17:10:14;-2.00;80.70
2441;DHT22;1231;53.988;9.470;2022-12-18T17:12:45;-2.00;80.70
2441;DHT22;1231;53.988;9.470;2022-12-18T17:15:15;-2.00;80.80
2441;DHT22;1231;53.988;9.470;2022-12-18T17:17:46;-2.00;80.80
2441;DHT22;1231;53.988;9.470;2022-12-18T17:20:16;-2.00;80.80
2441;DHT22;1231;53.988;9.470;2022-12-18T17:22:47;-2.00;80.80
2441;DHT22;1231;53.988;9.470;2022-12-18T17:25:17;-2.00;80.90
2441;DHT22;1231;53.988;9.470;2022-12-18T17:27:50;-2.00;80.90
2441;DHT22;1231;53.988;9.470;2022-12-18T17:30:20;-2.00;80.90
2441;DHT22;1231;53.988;9.470;2022-12-18T17:32:51;-1.90;81.00
2441;DHT22;1231;53.988;9.470;2022-12-18T17:35:21;-1.90;81.00
2441;DHT22;1231;53.988;9.470;2022-12-18T17:37:52;-1.90;81.00
2441;DHT22;1231;53.988;9.470;2022-12-18T17:40:22;-1.90;80.90
2441;DHT22;1231;53.988;9.470;2022-12-18T17:42:53;-1.90;80.90
2441;DHT22;1231;53.988;9.470;2022-12-18T17:45:23;-1.90;80.90
2441;DHT22;1231;53.988;9.470;2022-12-18T17:47:54;-1.90;80.90
2441;DHT22;1231;53.988;9.470;2022-12-18T17:50:24;-1.90;80.90
2441;DHT22;1231;53.988;9.470;2022-12-18T17:52:56;-1.90;81.10
2441;DHT22;1231;53.988;9.470;2022-12-18T17:55:27;-1.90;81.20
2441;DHT22;1231;53.988;9.470;2022-12-18T17:57:58;-1.90;81.30
2441;DHT22;1231;53.988;9.470;2022-12-18T18:00:29;-1.90;81.40
2441;DHT22;1231;53.988;9.470;2022-12-18T18:02:59;-1.90;81.50
2441;DHT22;1231;53.988;9.470;2022-12-18T18:05:30;-1.90;81.50
2441;DHT22;1231;53.988;9.470;2022-12-18T18:08:00;-1.90;81.60
2441;DHT22;1231;53.988;9.470;2022-12-18T18:10:31;-1.90;81.60
2441;DHT22;1231;53.988;9.470;2022-12-18T18:13:04;-1.90;81.70
2441;DHT22;1231;53.988;9.470;2022-12-18T18:15:57;-1.90;81.70
2441;DHT22;1231;53.988;9.470;2022-12-18T18:18:28;-1.90;81.70
2441;DHT22;1231;53.988;9.470;2022-12-18T18:21:04;-1.80;81.70
2441;DHT22;1231;53.988;9.470;2022-12-18T18:23:35;-1.80;81.60
2441;DHT22;1231;53.988;9.470;2022-12-18T18:26:06;-1.80;81.60
2441;DHT22;1231;53.988;9.470;2022-12-18T18:28:37;-1.90;81.70
2441;DHT22;1231;53.988;9.470;2022-12-18T18:31:09;-1.80;81.60
2441;DHT22;1231;53.988;9.470;2022-12-18T18:33:40;-1.80;81.60
2441;DHT22;1231;53.988;9.470;2022-12-18T18:36:10;-1.80;81.50
2441;DHT22;1231;53.988;9.470;2022-12-18T18:38:41;-1.80;81.50